createdAt,value
2019-04-11T00:00:50.550Z,5.40
2019-04-11T00:05:54.970Z,5.50
2019-04-11T00:10:59.610Z,4.75
2019-04-11T00:16:04.749Z,6.00
2019-04-11T00:21:08.948Z,5.00
2019-04-11T00:26:13.878Z,5.40
2019-04-11T00:31:18.877Z,7.40
2019-04-11T00:36:24.129Z,5.00
2019-04-11T00:41:28.288Z,5.00
2019-04-11T00:46:32.283Z,4.75
2019-04-11T00:51:36.343Z,6.40
2019-04-11T00:56:40.548Z,5.00
2019-04-11T01:01:45.008Z,4.25
2019-04-11T01:06:50.095Z,5.20
2019-04-11T01:11:54.371Z,3.20
2019-04-11T01:16:59.029Z,6.00
2019-04-11T01:22:04.031Z,4.00
2019-04-11T01:27:08.182Z,5.60
2019-04-11T01:32:13.860Z,2.25
2019-04-11T01:37:17.898Z,5.75
2019-04-11T01:42:22.821Z,4.50
2019-04-11T01:47:39.934Z,4.60
2019-04-11T01:52:44.590Z,4.50
2019-04-11T01:57:49.820Z,5.75
2019-04-11T02:02:57.310Z,3.25
2019-04-11T02:08:01.461Z,3.75
2019-04-11T02:13:05.880Z,4.25
2019-04-11T02:18:10.953Z,5.00
2019-04-11T02:23:20.075Z,5.00
2019-04-11T02:28:25.453Z,3.00
2019-04-11T02:33:30.683Z,4.20
2019-04-11T02:38:36.820Z,4.00
2019-04-11T02:43:44.158Z,4.50
2019-04-11T02:48:46.914Z,3.00
2019-04-11T02:53:51.907Z,3.00
2019-04-11T02:58:57.042Z,3.50
2019-04-11T03:04:01.897Z,4.50
2019-04-11T03:09:07.817Z,3.00
2019-04-11T03:14:13.993Z,3.75
2019-04-11T03:19:35.641Z,4.25
2019-04-11T03:24:26.360Z,2.80
2019-04-11T03:29:31.453Z,3.00
2019-04-11T03:39:59.279Z,4.60
2019-04-11T03:45:09.999Z,5.00
2019-04-11T03:50:01.726Z,3.25
2019-04-11T03:55:00.451Z,6.00
2019-04-11T04:00:06.977Z,3.67
2019-04-11T04:05:13.208Z,5.00
2019-04-11T04:10:19.924Z,3.25
2019-04-11T04:15:58.302Z,4.00
2019-04-11T04:21:06.998Z,6.00
2019-04-11T04:26:12.288Z,3.00
2019-04-11T04:31:18.308Z,3.00
2019-04-11T04:36:24.580Z,3.00
2019-04-11T04:41:38.490Z,3.25
2019-04-11T04:46:52.589Z,3.00
2019-04-11T04:51:43.566Z,4.25
2019-04-11T04:56:47.805Z,4.60
2019-04-11T05:01:53.347Z,3.00
2019-04-11T05:06:58.871Z,2.50
2019-04-11T05:12:03.505Z,4.00
2019-04-11T05:17:08.753Z,3.25
2019-04-11T05:22:12.884Z,5.00
2019-04-11T05:27:17.437Z,3.00
2019-04-11T05:32:21.904Z,2.25
2019-04-11T05:37:26.953Z,4.20
2019-04-11T05:42:31.359Z,3.25
2019-04-11T05:47:35.534Z,4.25
2019-04-11T05:52:39.998Z,5.00
2019-04-11T05:57:46.918Z,2.50
2019-04-11T06:02:58.007Z,3.00
2019-04-11T06:08:05.378Z,3.00
2019-04-11T06:13:22.654Z,2.80
2019-04-11T06:18:45.814Z,2.00
2019-04-11T06:24:09.917Z,5.33
2019-04-11T06:29:24.299Z,3.75
2019-04-11T06:34:26.579Z,3.80
2019-04-11T06:39:38.034Z,3.25
2019-04-11T06:45:04.146Z,5.50
2019-04-11T06:50:25.667Z,3.80
2019-04-11T06:55:44.836Z,3.00
2019-04-11T07:00:53.701Z,5.00
2019-04-11T07:05:59.547Z,2.40
2019-04-11T07:11:07.291Z,11.75
2019-04-11T07:16:11.560Z,25.25
2019-04-11T07:21:16.883Z,23.00
2019-04-11T07:26:30.450Z,18.75
2019-04-11T07:32:09.400Z,15.60
2019-04-11T07:37:32.460Z,18.75
2019-04-11T07:42:44.867Z,17.60
2019-04-11T07:47:54.794Z,17.50
2019-04-11T07:53:01.996Z,18.75
2019-04-11T07:58:24.046Z,20.00
2019-04-11T08:03:51.284Z,13.00
2019-04-11T08:09:28.988Z,19.00
2019-04-11T08:14:51.080Z,17.40
2019-04-11T08:20:13.166Z,17.25
2019-04-11T08:25:26.023Z,21.25
2019-04-11T08:30:37.823Z,16.40
2019-04-11T08:36:10.304Z,18.75
2019-04-11T08:41:37.891Z,22.50
2019-04-11T08:46:45.312Z,20.40
2019-04-11T08:51:49.645Z,20.20
2019-04-11T08:56:53.899Z,18.50
2019-04-11T09:01:58.221Z,23.00
2019-04-11T09:07:03.277Z,23.40
2019-04-11T09:12:10.571Z,18.20
2019-04-11T09:17:26.371Z,18.50
2019-04-11T09:22:33.246Z,20.60
2019-04-11T09:27:46.798Z,14.00
2019-04-11T09:33:11.299Z,17.80
2019-04-11T09:38:16.000Z,16.75
2019-04-11T09:43:22.581Z,18.75
2019-04-11T09:48:44.666Z,18.50
2019-04-11T09:53:53.409Z,17.50
2019-04-11T09:59:00.255Z,15.00
2019-04-11T10:04:06.451Z,16.40
2019-04-11T10:09:11.551Z,15.40
2019-04-11T10:14:19.734Z,16.40
2019-04-11T10:19:31.761Z,17.50
2019-04-11T10:24:54.934Z,13.75
2019-04-11T10:30:17.381Z,11.50
2019-04-11T10:35:42.731Z,15.00
2019-04-11T10:41:14.995Z,11.25
2019-04-11T10:46:37.541Z,14.00
2019-04-11T10:52:00.362Z,13.25
2019-04-11T10:57:38.887Z,14.00
2019-04-11T11:03:07.808Z,13.75
2019-04-11T11:08:31.242Z,11.50
2019-04-11T11:13:54.044Z,11.00
2019-04-11T11:19:33.730Z,13.50
2019-04-11T11:24:42.483Z,10.75
2019-04-11T11:30:08.341Z,16.00
2019-04-11T11:35:37.056Z,15.00
2019-04-11T11:41:10.087Z,10.20
2019-04-11T11:46:39.001Z,16.00
2019-04-11T11:52:00.107Z,16.50
2019-04-11T11:57:08.713Z,14.00
2019-04-11T12:02:22.387Z,13.50
2019-04-11T12:07:36.095Z,16.50
2019-04-11T12:12:49.389Z,19.00
2019-04-11T12:18:11.052Z,20.20
2019-04-11T12:23:24.176Z,17.00
2019-04-11T12:28:45.981Z,18.80
2019-04-11T12:34:12.387Z,21.75
2019-04-11T12:39:40.555Z,22.80
2019-04-11T12:45:02.187Z,25.00
2019-04-11T12:50:23.340Z,25.40
2019-04-11T12:55:40.158Z,24.75
2019-04-11T13:01:02.372Z,26.60
2019-04-11T13:06:12.487Z,22.25
2019-04-11T13:11:16.822Z,24.20
2019-04-11T13:16:20.979Z,20.80
2019-04-11T13:21:28.402Z,25.00
2019-04-11T13:26:52.151Z,23.50
2019-04-11T13:32:24.415Z,22.80
2019-04-11T13:37:46.114Z,23.00
2019-04-11T13:43:08.091Z,23.50
2019-04-11T13:48:30.098Z,23.80
2019-04-11T13:54:02.531Z,20.75
2019-04-11T13:59:24.603Z,19.75
2019-04-11T14:04:33.357Z,21.20
2019-04-11T14:09:42.732Z,22.80
2019-04-11T14:14:59.324Z,18.40
2019-04-11T14:20:29.075Z,19.80
2019-04-11T14:25:46.048Z,21.00
2019-04-11T14:31:21.803Z,22.00
2019-04-11T14:36:50.540Z,19.25
2019-04-11T14:42:12.587Z,21.00
2019-04-11T14:47:38.942Z,19.25
2019-04-11T14:52:58.601Z,17.60
2019-04-11T14:58:23.584Z,19.20
2019-04-11T15:03:57.453Z,20.50
2019-04-11T15:09:29.591Z,18.00
2019-04-11T15:14:58.658Z,19.80
2019-04-11T15:20:21.760Z,17.60
2019-04-11T15:25:43.421Z,15.75
2019-04-11T15:30:49.622Z,18.00
2019-04-11T15:35:57.735Z,18.25
2019-04-11T15:41:00.230Z,16.25
2019-04-11T15:46:20.143Z,16.00
2019-04-11T15:51:29.623Z,14.25
2019-04-11T15:56:41.757Z,18.25
2019-04-11T16:02:02.786Z,15.25
2019-04-11T16:07:30.504Z,14.50
2019-04-11T16:12:42.744Z,16.40
2019-04-11T16:18:26.338Z,14.50
2019-04-11T16:23:38.737Z,14.00
2019-04-11T16:29:15.099Z,12.60
2019-04-11T16:34:47.644Z,14.75
2019-04-11T16:40:16.325Z,15.20
2019-04-11T16:45:39.363Z,13.75
2019-04-11T16:50:43.568Z,14.20
2019-04-11T16:55:47.651Z,14.50
2019-04-11T17:00:52.496Z,15.60
2019-04-11T17:06:12.592Z,14.40
2019-04-11T17:11:19.279Z,11.75
2019-04-11T17:16:23.307Z,13.25
2019-04-11T17:21:27.430Z,11.20
2019-04-11T17:26:31.519Z,11.75
2019-04-11T17:31:35.735Z,11.00
2019-04-11T17:36:39.769Z,16.75
2019-04-11T17:41:43.780Z,12.50
2019-04-11T17:46:47.984Z,13.80
2019-04-11T17:51:56.034Z,12.60
2019-04-11T17:56:59.136Z,11.50
2019-04-11T18:02:04.913Z,14.40
2019-04-11T18:07:09.042Z,11.00
2019-04-11T18:12:13.236Z,10.20
2019-04-11T18:17:17.301Z,11.40
2019-04-11T18:22:22.816Z,12.60
2019-04-11T18:27:26.819Z,13.00
2019-04-11T18:32:30.990Z,9.75
2019-04-11T18:37:35.079Z,12.00
2019-04-11T18:42:39.287Z,8.20
2019-04-11T18:47:43.287Z,10.20
2019-04-11T18:52:47.378Z,9.00
2019-04-11T18:57:51.452Z,7.75
2019-04-11T19:02:55.551Z,12.80
2019-04-11T19:07:59.632Z,7.00
2019-04-11T19:13:03.690Z,7.50
2019-04-11T19:18:07.751Z,9.75
2019-04-11T19:23:11.986Z,8.00
2019-04-11T19:28:15.969Z,8.40
2019-04-11T19:33:20.065Z,8.50
2019-04-11T19:38:29.469Z,8.20
2019-04-11T19:43:33.481Z,6.80
2019-04-11T19:48:37.491Z,8.00
2019-04-11T19:53:41.483Z,8.80
2019-04-11T19:58:45.454Z,8.00
2019-04-11T20:03:49.461Z,6.80
2019-04-11T20:08:53.477Z,9.25
2019-04-11T20:13:57.472Z,5.80
2019-04-11T20:19:01.476Z,7.00
2019-04-11T20:24:05.620Z,5.80
2019-04-11T20:29:09.636Z,7.00
2019-04-11T20:34:13.824Z,6.75
2019-04-11T20:39:18.084Z,7.00
2019-04-11T20:44:22.141Z,7.40
2019-04-11T20:49:26.133Z,7.00
2019-04-11T20:54:30.417Z,8.00
2019-04-11T20:59:35.197Z,6.25
2019-04-11T21:04:39.313Z,6.20
2019-04-11T21:09:43.313Z,6.40
2019-04-11T21:14:47.464Z,6.75
2019-04-11T21:19:53.328Z,4.00
2019-04-11T21:24:59.523Z,5.20
2019-04-11T21:30:04.186Z,5.00
2019-04-11T21:35:08.446Z,6.00
2019-04-11T21:40:12.717Z,5.75
2019-04-11T21:45:16.799Z,5.00
2019-04-11T21:50:20.871Z,4.80
2019-04-11T21:55:24.864Z,5.60
2019-04-11T22:00:39.952Z,4.50
2019-04-11T22:05:43.993Z,7.80
2019-04-11T22:10:48.090Z,7.40
2019-04-11T22:15:52.099Z,7.60
2019-04-11T22:20:56.132Z,4.00
2019-04-11T22:26:00.234Z,6.00
2019-04-11T22:31:04.606Z,4.80
2019-04-11T22:36:08.596Z,3.75
2019-04-11T22:41:12.689Z,5.50
2019-04-11T22:46:20.930Z,6.20
2019-04-11T22:51:22.531Z,4.00
2019-04-11T22:56:26.606Z,4.50
2019-04-11T23:01:30.721Z,3.75
2019-04-11T23:06:34.742Z,5.00
2019-04-11T23:11:38.739Z,6.25
2019-04-11T23:16:44.199Z,4.75
2019-04-11T23:21:48.533Z,2.50
2019-04-11T23:26:52.532Z,3.75
2019-04-11T23:31:57.286Z,4.00
2019-04-11T23:37:01.280Z,4.50
2019-04-11T23:42:05.288Z,6.00
2019-04-11T23:47:09.431Z,3.00
2019-04-11T23:52:13.455Z,4.00
2019-04-11T23:57:17.475Z,2.50
